Time After Time — 6YSL5 — position and weather

sailwx.info

Track history (hours):
 
Tides and Currents Weather Stations Pressure Air Temp Water Temp Dewpoint Dewpoint Depression Visibility Wind Speed Wind Dir Waves Ship Positions

Time After Time

Last reported at 2018-Jan-06 01:49 UTC. Time now 2018-Feb-24 22:16 UTC.
Position N 26°50' W 080°03'.
Warning: this ship's position is 49 days out of date.

Length 29 m; draft 2.2 m.

MMSI: 339437000.

Date/timePositionNaut miles runAvg speedWind from/ knotsBaromVisibWave heightAir tempDewpointWater temp
2018-Jan-06 01:49N 26°50' W 080°03'0 0.1
2018-Jan-06 01:30N 26°50' W 080°03'3 5.6
2018-Jan-06 01:00N 26°47' W 080°03'1 1.8
2018-Jan-06 00:30N 26°46' W 080°03'0 0.0
2018-Jan-06 00:00N 26°46' W 080°03'0 0.0
2018-Jan-05 23:30N 26°46' W 080°03'0 0.0
2018-Jan-05 23:00N 26°46' W 080°03'28 6.9
2018-Jan-05 18:54N 26°18' W 080°03'512.9
2018-Jan-05 18:30N 26°13' W 080°03'611.1
2018-Jan-05 18:00N 26°08' W 080°04'3 6.6
2018-Jan-05 17:30N 26°06' W 080°07'2 3.9
2018-Jan-05 17:00N 26°07' W 080°09'2 4.0
2018-Jan-05 16:30N 26°05' W 080°11'  
Track history (hours):
 
Tides and Currents Weather Stations Pressure Air Temp Water Temp Dewpoint Dewpoint Depression Visibility Wind Speed Wind Dir Waves Ship Positions

Time After Time

Last reported at 2018-Jan-06 01:49 UTC. Time now 2018-Feb-24 22:16 UTC.
Position N 26°50' W 080°03'.
Warning: this ship's position is 49 days out of date.

Length 29 m; draft 2.2 m.

MMSI: 339437000.

Date/timePositionNaut miles runAvg speedWind from/ knotsBaromVisibWave heightAir tempDewpointWater temp
2018-Jan-06 01:49N 26°50' W 080°03'0 0.1
2018-Jan-06 01:30N 26°50' W 080°03'3 5.6
2018-Jan-06 01:00N 26°47' W 080°03'1 1.8
2018-Jan-06 00:30N 26°46' W 080°03'0 0.0
2018-Jan-06 00:00N 26°46' W 080°03'0 0.0
2018-Jan-05 23:30N 26°46' W 080°03'0 0.0
2018-Jan-05 23:00N 26°46' W 080°03'28 6.9
2018-Jan-05 18:54N 26°18' W 080°03'512.9
2018-Jan-05 18:30N 26°13' W 080°03'611.1
2018-Jan-05 18:00N 26°08' W 080°04'3 6.6
2018-Jan-05 17:30N 26°06' W 080°07'2 3.9
2018-Jan-05 17:00N 26°07' W 080°09'2 4.0
2018-Jan-05 16:30N 26°05' W 080°11'  

Dump ship's entire track history